sensor_id;sensor_type;location;lat;lon;timestamp;P1;durP1;ratioP1;P2;durP2;ratioP2
24153;SDS011;12312;53.362;-1.518;2022-09-13T00:01:55;10.27;;;2.92;;
24153;SDS011;12312;53.362;-1.518;2022-09-13T00:04:21;9.57;;;3.15;;
24153;SDS011;12312;53.362;-1.518;2022-09-13T00:06:46;9.57;;;3.05;;
24153;SDS011;12312;53.362;-1.518;2022-09-13T00:09:12;4.63;;;2.83;;
24153;SDS011;12312;53.362;-1.518;2022-09-13T00:11:38;7.82;;;2.88;;
24153;SDS011;12312;53.362;-1.518;2022-09-13T00:14:03;6.82;;;2.95;;
24153;SDS011;12312;53.362;-1.518;2022-09-13T00:16:29;6.53;;;3.40;;
24153;SDS011;12312;53.362;-1.518;2022-09-13T00:18:55;10.95;;;3.30;;
24153;SDS011;12312;53.362;-1.518;2022-09-13T00:21:22;8.18;;;3.33;;
24153;SDS011;12312;53.362;-1.518;2022-09-13T00:23:52;9.00;;;3.20;;
24153;SDS011;12312;53.362;-1.518;2022-09-13T00:26:20;10.45;;;3.35;;
24153;SDS011;12312;53.362;-1.518;2022-09-13T00:28:49;6.03;;;3.13;;
24153;SDS011;12312;53.362;-1.518;2022-09-13T00:31:22;14.57;;;3.15;;
24153;SDS011;12312;53.362;-1.518;2022-09-13T00:33:49;7.75;;;2.92;;
24153;SDS011;12312;53.362;-1.518;2022-09-13T00:36:16;11.65;;;3.45;;
24153;SDS011;12312;53.362;-1.518;2022-09-13T00:38:42;10.35;;;3.53;;
24153;SDS011;12312;53.362;-1.518;2022-09-13T00:41:12;8.18;;;4.10;;
24153;SDS011;12312;53.362;-1.518;2022-09-13T00:48:46;7.05;;;3.50;;
24153;SDS011;12312;53.362;-1.518;2022-09-13T00:51:17;7.05;;;3.30;;
24153;SDS011;12312;53.362;-1.518;2022-09-13T00:53:44;9.13;;;3.53;;
24153;SDS011;12312;53.362;-1.518;2022-09-13T00:56:15;10.45;;;3.00;;
24153;SDS011;12312;53.362;-1.518;2022-09-13T00:58:52;8.07;;;2.63;;
24153;SDS011;12312;53.362;-1.518;2022-09-13T01:01:25;8.85;;;2.80;;
24153;SDS011;12312;53.362;-1.518;2022-09-13T01:03:57;9.73;;;2.30;;
24153;SDS011;12312;53.362;-1.518;2022-09-13T01:06:25;5.60;;;1.95;;
24153;SDS011;12312;53.362;-1.518;2022-09-13T01:08:57;6.40;;;2.35;;
24153;SDS011;12312;53.362;-1.518;2022-09-13T01:14:00;5.32;;;1.90;;
24153;SDS011;12312;53.362;-1.518;2022-09-13T01:16:27;8.48;;;2.08;;
24153;SDS011;12312;53.362;-1.518;2022-09-13T01:18:52;7.10;;;2.10;;
24153;SDS011;12312;53.362;-1.518;2022-09-13T01:35:06;5.15;;;1.40;;
24153;SDS011;12312;53.362;-1.518;2022-09-13T01:46:21;6.35;;;1.25;;
24153;SDS011;12312;53.362;-1.518;2022-09-13T01:49:13;7.68;;;1.80;;
24153;SDS011;12312;53.362;-1.518;2022-09-13T01:51:46;6.95;;;1.40;;
24153;SDS011;12312;53.362;-1.518;2022-09-13T01:54:37;3.53;;;1.20;;
24153;SDS011;12312;53.362;-1.518;2022-09-13T02:00:07;5.07;;;1.38;;
24153;SDS011;12312;53.362;-1.518;2022-09-13T02:05:53;4.20;;;1.60;;
24153;SDS011;12312;53.362;-1.518;2022-09-13T02:08:24;3.35;;;1.20;;
24153;SDS011;12312;53.362;-1.518;2022-09-13T02:11:12;7.53;;;1.52;;
24153;SDS011;12312;53.362;-1.518;2022-09-13T02:13:55;4.47;;;1.15;;
24153;SDS011;12312;53.362;-1.518;2022-09-13T02:16:30;9.00;;;1.30;;
24153;SDS011;12312;53.362;-1.518;2022-09-13T02:19:07;4.40;;;1.73;;
24153;SDS011;12312;53.362;-1.518;2022-09-13T02:21:38;6.57;;;1.50;;
24153;SDS011;12312;53.362;-1.518;2022-09-13T02:24:10;4.78;;;1.50;;
24153;SDS011;12312;53.362;-1.518;2022-09-13T02:26:40;4.82;;;1.30;;
24153;SDS011;12312;53.362;-1.518;2022-09-13T02:29:11;6.28;;;1.30;;
24153;SDS011;12312;53.362;-1.518;2022-09-13T02:31:54;5.72;;;1.27;;
24153;SDS011;12312;53.362;-1.518;2022-09-13T02:34:51;6.20;;;1.17;;
24153;SDS011;12312;53.362;-1.518;2022-09-13T02:37:19;6.55;;;1.30;;
24153;SDS011;12312;53.362;-1.518;2022-09-13T02:39:49;3.40;;;1.20;;
24153;SDS011;12312;53.362;-1.518;2022-09-13T02:42:33;3.17;;;1.10;;
24153;SDS011;12312;53.362;-1.518;2022-09-13T02:45:03;4.95;;;1.50;;
24153;SDS011;12312;53.362;-1.518;2022-09-13T02:48:13;5.55;;;1.33;;
24153;SDS011;12312;53.362;-1.518;2022-09-13T02:58:45;5.30;;;1.20;;
24153;SDS011;12312;53.362;-1.518;2022-09-13T03:01:15;3.08;;;1.30;;
24153;SDS011;12312;53.362;-1.518;2022-09-13T03:03:41;3.47;;;1.60;;
24153;SDS011;12312;53.362;-1.518;2022-09-13T03:06:09;9.90;;;1.73;;
24153;SDS011;12312;53.362;-1.518;2022-09-13T03:08:34;2.50;;;1.10;;
24153;SDS011;12312;53.362;-1.518;2022-09-13T03:14:17;3.78;;;1.40;;
24153;SDS011;12312;53.362;-1.518;2022-09-13T03:17:01;3.35;;;1.77;;
24153;SDS011;12312;53.362;-1.518;2022-09-13T03:22:39;5.10;;;1.90;;
24153;SDS011;12312;53.362;-1.518;2022-09-13T03:27:59;6.28;;;1.60;;
24153;SDS011;12312;53.362;-1.518;2022-09-13T03:30:36;7.22;;;1.65;;
24153;SDS011;12312;53.362;-1.518;2022-09-13T03:38:25;3.35;;;1.33;;
24153;SDS011;12312;53.362;-1.518;2022-09-13T03:40:56;3.53;;;1.40;;
24153;SDS011;12312;53.362;-1.518;2022-09-13T03:46:35;3.88;;;1.48;;
24153;SDS011;12312;53.362;-1.518;2022-09-13T03:49:09;5.65;;;1.83;;
24153;SDS011;12312;53.362;-1.518;2022-09-13T03:51:42;4.68;;;1.35;;
24153;SDS011;12312;53.362;-1.518;2022-09-13T03:54:17;5.13;;;1.33;;
24153;SDS011;12312;53.362;-1.518;2022-09-13T03:57:07;5.22;;;1.45;;
24153;SDS011;12312;53.362;-1.518;2022-09-13T04:00:00;4.05;;;1.63;;
24153;SDS011;12312;53.362;-1.518;2022-09-13T04:02:27;6.70;;;1.40;;
24153;SDS011;12312;53.362;-1.518;2022-09-13T04:04:53;5.03;;;1.65;;
24153;SDS011;12312;53.362;-1.518;2022-09-13T04:07:19;3.10;;;1.33;;
24153;SDS011;12312;53.362;-1.518;2022-09-13T04:09:47;3.65;;;1.40;;
24153;SDS011;12312;53.362;-1.518;2022-09-13T04:12:13;5.15;;;1.70;;
24153;SDS011;12312;53.362;-1.518;2022-09-13T04:14:41;6.32;;;1.80;;
24153;SDS011;12312;53.362;-1.518;2022-09-13T04:17:10;6.88;;;1.60;;
24153;SDS011;12312;53.362;-1.518;2022-09-13T04:19:38;4.32;;;1.20;;
24153;SDS011;12312;53.362;-1.518;2022-09-13T04:22:04;4.78;;;1.30;;
24153;SDS011;12312;53.362;-1.518;2022-09-13T04:24:30;5.22;;;1.40;;
24153;SDS011;12312;53.362;-1.518;2022-09-13T04:26:56;3.63;;;1.38;;
24153;SDS011;12312;53.362;-1.518;2022-09-13T04:29:22;3.70;;;1.48;;
24153;SDS011;12312;53.362;-1.518;2022-09-13T04:31:49;5.03;;;1.52;;
24153;SDS011;12312;53.362;-1.518;2022-09-13T04:34:16;5.10;;;1.77;;
24153;SDS011;12312;53.362;-1.518;2022-09-13T04:36:42;6.43;;;1.80;;
24153;SDS011;12312;53.362;-1.518;2022-09-13T04:39:09;2.65;;;1.52;;
24153;SDS011;12312;53.362;-1.518;2022-09-13T04:41:35;6.43;;;1.98;;
24153;SDS011;12312;53.362;-1.518;2022-09-13T04:44:00;3.80;;;1.30;;
24153;SDS011;12312;53.362;-1.518;2022-09-13T04:46:27;3.40;;;1.48;;
24153;SDS011;12312;53.362;-1.518;2022-09-13T04:48:53;2.63;;;1.08;;
24153;SDS011;12312;53.362;-1.518;2022-09-13T04:51:19;4.68;;;1.30;;
24153;SDS011;12312;53.362;-1.518;2022-09-13T04:53:46;8.50;;;1.60;;
24153;SDS011;12312;53.362;-1.518;2022-09-13T04:56:24;6.10;;;1.30;;
24153;SDS011;12312;53.362;-1.518;2022-09-13T04:58:50;5.05;;;1.13;;
24153;SDS011;12312;53.362;-1.518;2022-09-13T05:01:16;4.80;;;1.63;;
24153;SDS011;12312;53.362;-1.518;2022-09-13T05:03:44;3.70;;;1.50;;
24153;SDS011;12312;53.362;-1.518;2022-09-13T05:06:13;7.65;;;1.48;;
24153;SDS011;12312;53.362;-1.518;2022-09-13T05:08:42;3.50;;;1.33;;
24153;SDS011;12312;53.362;-1.518;2022-09-13T05:11:08;3.17;;;1.40;;
24153;SDS011;12312;53.362;-1.518;2022-09-13T05:13:34;3.53;;;1.40;;
24153;SDS011;12312;53.362;-1.518;2022-09-13T05:16:01;3.95;;;1.10;;
24153;SDS011;12312;53.362;-1.518;2022-09-13T05:18:32;2.95;;;1.40;;
24153;SDS011;12312;53.362;-1.518;2022-09-13T05:20:59;4.85;;;1.30;;
24153;SDS011;12312;53.362;-1.518;2022-09-13T05:23:26;6.25;;;1.40;;
24153;SDS011;12312;53.362;-1.518;2022-09-13T05:25:58;4.82;;;1.30;;
24153;SDS011;12312;53.362;-1.518;2022-09-13T05:28:29;6.00;;;1.40;;
24153;SDS011;12312;53.362;-1.518;2022-09-13T05:30:57;8.38;;;1.27;;
24153;SDS011;12312;53.362;-1.518;2022-09-13T05:33:25;3.92;;;1.23;;
24153;SDS011;12312;53.362;-1.518;2022-09-13T05:35:52;5.97;;;1.23;;
24153;SDS011;12312;53.362;-1.518;2022-09-13T05:38:18;6.80;;;1.50;;
24153;SDS011;12312;53.362;-1.518;2022-09-13T05:40:44;7.82;;;1.88;;
24153;SDS011;12312;53.362;-1.518;2022-09-13T05:43:11;7.68;;;1.20;;
24153;SDS011;12312;53.362;-1.518;2022-09-13T05:45:37;7.68;;;1.50;;
24153;SDS011;12312;53.362;-1.518;2022-09-13T05:48:03;9.05;;;1.50;;
24153;SDS011;12312;53.362;-1.518;2022-09-13T05:50:29;4.68;;;1.08;;
24153;SDS011;12312;53.362;-1.518;2022-09-13T05:52:55;4.90;;;1.42;;
24153;SDS011;12312;53.362;-1.518;2022-09-13T05:55:21;5.85;;;1.58;;
24153;SDS011;12312;53.362;-1.518;2022-09-13T05:57:47;4.20;;;1.48;;
24153;SDS011;12312;53.362;-1.518;2022-09-13T06:00:14;4.57;;;1.50;;
24153;SDS011;12312;53.362;-1.518;2022-09-13T06:02:41;6.22;;;1.33;;
24153;SDS011;12312;53.362;-1.518;2022-09-13T06:05:07;6.55;;;1.40;;
24153;SDS011;12312;53.362;-1.518;2022-09-13T06:07:40;5.60;;;1.50;;
24153;SDS011;12312;53.362;-1.518;2022-09-13T06:10:07;6.05;;;1.35;;
24153;SDS011;12312;53.362;-1.518;2022-09-13T06:12:33;3.45;;;1.20;;
24153;SDS011;12312;53.362;-1.518;2022-09-13T06:15:01;6.28;;;1.15;;
24153;SDS011;12312;53.362;-1.518;2022-09-13T06:17:27;7.72;;;1.50;;
24153;SDS011;12312;53.362;-1.518;2022-09-13T06:19:53;3.75;;;1.17;;
24153;SDS011;12312;53.362;-1.518;2022-09-13T06:22:20;5.47;;;1.60;;
24153;SDS011;12312;53.362;-1.518;2022-09-13T06:24:45;6.20;;;1.38;;
24153;SDS011;12312;53.362;-1.518;2022-09-13T06:27:11;4.65;;;1.17;;
24153;SDS011;12312;53.362;-1.518;2022-09-13T06:29:37;4.80;;;1.13;;
24153;SDS011;12312;53.362;-1.518;2022-09-13T06:32:03;7.32;;;1.95;;
24153;SDS011;12312;53.362;-1.518;2022-09-13T06:34:28;5.13;;;1.67;;
24153;SDS011;12312;53.362;-1.518;2022-09-13T06:36:59;7.00;;;1.60;;
24153;SDS011;12312;53.362;-1.518;2022-09-13T06:39:24;7.35;;;1.85;;
24153;SDS011;12312;53.362;-1.518;2022-09-13T06:41:50;10.55;;;1.95;;
24153;SDS011;12312;53.362;-1.518;2022-09-13T06:44:16;7.15;;;1.55;;
24153;SDS011;12312;53.362;-1.518;2022-09-13T06:46:41;5.78;;;1.73;;
24153;SDS011;12312;53.362;-1.518;2022-09-13T06:49:08;6.07;;;1.30;;
24153;SDS011;12312;53.362;-1.518;2022-09-13T06:51:37;8.98;;;1.50;;
24153;SDS011;12312;53.362;-1.518;2022-09-13T06:54:03;9.88;;;2.47;;
24153;SDS011;12312;53.362;-1.518;2022-09-13T06:56:30;3.92;;;1.25;;
24153;SDS011;12312;53.362;-1.518;2022-09-13T06:58:59;4.75;;;1.50;;
24153;SDS011;12312;53.362;-1.518;2022-09-13T07:01:28;7.75;;;1.20;;
24153;SDS011;12312;53.362;-1.518;2022-09-13T07:04:00;6.97;;;1.77;;
24153;SDS011;12312;53.362;-1.518;2022-09-13T07:06:35;4.75;;;1.50;;
24153;SDS011;12312;53.362;-1.518;2022-09-13T07:09:03;2.70;;;0.93;;
24153;SDS011;12312;53.362;-1.518;2022-09-13T07:11:32;4.95;;;1.45;;
24153;SDS011;12312;53.362;-1.518;2022-09-13T07:13:59;7.25;;;1.50;;
24153;SDS011;12312;53.362;-1.518;2022-09-13T07:16:26;3.72;;;1.27;;
24153;SDS011;12312;53.362;-1.518;2022-09-13T07:18:54;4.85;;;1.58;;
24153;SDS011;12312;53.362;-1.518;2022-09-13T07:21:24;5.00;;;1.40;;
24153;SDS011;12312;53.362;-1.518;2022-09-13T07:23:52;6.45;;;1.58;;
24153;SDS011;12312;53.362;-1.518;2022-09-13T07:26:19;8.80;;;1.40;;
24153;SDS011;12312;53.362;-1.518;2022-09-13T07:28:46;7.00;;;1.90;;
24153;SDS011;12312;53.362;-1.518;2022-09-13T07:33:43;6.55;;;1.55;;
24153;SDS011;12312;53.362;-1.518;2022-09-13T07:36:10;4.18;;;1.38;;
24153;SDS011;12312;53.362;-1.518;2022-09-13T07:38:37;7.20;;;1.65;;
24153;SDS011;12312;53.362;-1.518;2022-09-13T07:41:11;6.63;;;1.20;;
24153;SDS011;12312;53.362;-1.518;2022-09-13T07:43:39;6.97;;;1.42;;
24153;SDS011;12312;53.362;-1.518;2022-09-13T07:46:08;4.63;;;1.35;;
24153;SDS011;12312;53.362;-1.518;2022-09-13T07:48:36;11.15;;;1.30;;
24153;SDS011;12312;53.362;-1.518;2022-09-13T07:51:05;6.57;;;1.50;;
24153;SDS011;12312;53.362;-1.518;2022-09-13T07:53:38;5.63;;;1.20;;
24153;SDS011;12312;53.362;-1.518;2022-09-13T07:56:28;2.92;;;1.15;;
24153;SDS011;12312;53.362;-1.518;2022-09-13T07:58:57;3.15;;;1.42;;
24153;SDS011;12312;53.362;-1.518;2022-09-13T08:01:25;8.32;;;1.38;;
24153;SDS011;12312;53.362;-1.518;2022-09-13T08:03:58;9.43;;;1.50;;
24153;SDS011;12312;53.362;-1.518;2022-09-13T08:06:26;5.78;;;1.30;;
24153;SDS011;12312;53.362;-1.518;2022-09-13T08:08:54;5.55;;;1.42;;
24153;SDS011;12312;53.362;-1.518;2022-09-13T08:11:21;2.83;;;1.15;;
24153;SDS011;12312;53.362;-1.518;2022-09-13T08:13:49;5.28;;;1.45;;
24153;SDS011;12312;53.362;-1.518;2022-09-13T08:16:16;9.05;;;1.40;;
24153;SDS011;12312;53.362;-1.518;2022-09-13T08:18:48;5.85;;;1.27;;
24153;SDS011;12312;53.362;-1.518;2022-09-13T08:21:16;5.32;;;1.45;;
24153;SDS011;12312;53.362;-1.518;2022-09-13T08:23:43;3.63;;;0.80;;
24153;SDS011;12312;53.362;-1.518;2022-09-13T08:26:09;3.00;;;1.00;;
24153;SDS011;12312;53.362;-1.518;2022-09-13T08:28:36;5.80;;;1.42;;
24153;SDS011;12312;53.362;-1.518;2022-09-13T08:31:14;4.50;;;1.17;;
24153;SDS011;12312;53.362;-1.518;2022-09-13T08:33:45;4.05;;;1.20;;
24153;SDS011;12312;53.362;-1.518;2022-09-13T08:36:31;4.18;;;1.00;;
24153;SDS011;12312;53.362;-1.518;2022-09-13T08:38:58;5.00;;;0.80;;
24153;SDS011;12312;53.362;-1.518;2022-09-13T08:50:18;3.85;;;0.85;;
24153;SDS011;12312;53.362;-1.518;2022-09-13T08:52:53;4.78;;;1.45;;
24153;SDS011;12312;53.362;-1.518;2022-09-13T09:00:49;4.43;;;0.90;;
24153;SDS011;12312;53.362;-1.518;2022-09-13T09:03:48;5.00;;;0.80;;
24153;SDS011;12312;53.362;-1.518;2022-09-13T09:06:25;3.38;;;1.00;;
24153;SDS011;12312;53.362;-1.518;2022-09-13T09:09:14;2.33;;;0.80;;
24153;SDS011;12312;53.362;-1.518;2022-09-13T09:11:46;2.50;;;0.70;;
24153;SDS011;12312;53.362;-1.518;2022-09-13T09:14:16;4.88;;;0.82;;
24153;SDS011;12312;53.362;-1.518;2022-09-13T09:16:52;4.18;;;0.82;;
24153;SDS011;12312;53.362;-1.518;2022-09-13T09:22:33;1.98;;;1.05;;
24153;SDS011;12312;53.362;-1.518;2022-09-13T09:25:00;3.95;;;0.80;;
24153;SDS011;12312;53.362;-1.518;2022-09-13T09:27:28;3.88;;;1.48;;
24153;SDS011;12312;53.362;-1.518;2022-09-13T09:29:55;4.95;;;0.70;;
24153;SDS011;12312;53.362;-1.518;2022-09-13T09:35:17;3.65;;;0.77;;
24153;SDS011;12312;53.362;-1.518;2022-09-13T09:40:51;5.55;;;0.70;;
24153;SDS011;12312;53.362;-1.518;2022-09-13T09:43:22;2.28;;;0.70;;
24153;SDS011;12312;53.362;-1.518;2022-09-13T09:45:55;3.67;;;0.80;;
24153;SDS011;12312;53.362;-1.518;2022-09-13T09:48:24;6.65;;;0.73;;
24153;SDS011;12312;53.362;-1.518;2022-09-13T09:50:55;4.03;;;0.82;;
24153;SDS011;12312;53.362;-1.518;2022-09-13T09:58:41;4.75;;;0.80;;
24153;SDS011;12312;53.362;-1.518;2022-09-13T10:01:30;5.05;;;0.80;;
24153;SDS011;12312;53.362;-1.518;2022-09-13T10:04:00;3.30;;;0.80;;
24153;SDS011;12312;53.362;-1.518;2022-09-13T10:06:33;3.85;;;1.20;;
24153;SDS011;12312;53.362;-1.518;2022-09-13T10:11:48;4.90;;;0.73;;
24153;SDS011;12312;53.362;-1.518;2022-09-13T10:19:39;4.43;;;1.10;;
24153;SDS011;12312;53.362;-1.518;2022-09-13T10:22:10;6.60;;;1.23;;
24153;SDS011;12312;53.362;-1.518;2022-09-13T10:24:37;6.50;;;1.00;;
24153;SDS011;12312;53.362;-1.518;2022-09-13T10:27:04;3.10;;;0.90;;
24153;SDS011;12312;53.362;-1.518;2022-09-13T10:29:46;1.50;;;0.70;;
24153;SDS011;12312;53.362;-1.518;2022-09-13T10:32:14;3.35;;;1.17;;
24153;SDS011;12312;53.362;-1.518;2022-09-13T10:34:40;3.03;;;0.80;;
24153;SDS011;12312;53.362;-1.518;2022-09-13T10:40:20;6.90;;;1.02;;
24153;SDS011;12312;53.362;-1.518;2022-09-13T10:42:54;8.32;;;1.15;;
24153;SDS011;12312;53.362;-1.518;2022-09-13T10:45:22;4.68;;;0.75;;
24153;SDS011;12312;53.362;-1.518;2022-09-13T10:47:50;4.70;;;0.90;;
24153;SDS011;12312;53.362;-1.518;2022-09-13T10:50:20;4.63;;;0.80;;
24153;SDS011;12312;53.362;-1.518;2022-09-13T10:52:48;4.32;;;1.00;;
24153;SDS011;12312;53.362;-1.518;2022-09-13T11:06:29;4.07;;;0.80;;
24153;SDS011;12312;53.362;-1.518;2022-09-13T11:09:20;2.95;;;0.90;;
24153;SDS011;12312;53.362;-1.518;2022-09-13T11:18:43;3.90;;;0.80;;
24153;SDS011;12312;53.362;-1.518;2022-09-13T11:26:43;3.90;;;0.80;;
24153;SDS011;12312;53.362;-1.518;2022-09-13T11:29:32;2.83;;;0.70;;
24153;SDS011;12312;53.362;-1.518;2022-09-13T11:35:26;3.53;;;0.95;;
24153;SDS011;12312;53.362;-1.518;2022-09-13T11:57:53;3.83;;;1.42;;
24153;SDS011;12312;53.362;-1.518;2022-09-13T12:00:16;3.15;;;1.13;;
24153;SDS011;12312;53.362;-1.518;2022-09-13T12:08:44;4.65;;;1.00;;
24153;SDS011;12312;53.362;-1.518;2022-09-13T12:11:15;3.70;;;0.90;;
24153;SDS011;12312;53.362;-1.518;2022-09-13T12:13:49;3.10;;;0.85;;
24153;SDS011;12312;53.362;-1.518;2022-09-13T12:16:22;5.32;;;0.70;;
24153;SDS011;12312;53.362;-1.518;2022-09-13T12:18:53;3.35;;;0.70;;
24153;SDS011;12312;53.362;-1.518;2022-09-13T12:21:23;2.92;;;0.80;;
24153;SDS011;12312;53.362;-1.518;2022-09-13T12:31:54;3.25;;;0.55;;
24153;SDS011;12312;53.362;-1.518;2022-09-13T12:34:25;2.17;;;0.57;;
24153;SDS011;12312;53.362;-1.518;2022-09-13T12:43:01;3.95;;;0.73;;
24153;SDS011;12312;53.362;-1.518;2022-09-13T12:56:44;3.08;;;0.70;;
24153;SDS011;12312;53.362;-1.518;2022-09-13T12:59:30;2.78;;;0.93;;
24153;SDS011;12312;53.362;-1.518;2022-09-13T13:07:59;3.58;;;0.50;;
24153;SDS011;12312;53.362;-1.518;2022-09-13T13:10:32;4.30;;;0.68;;
24153;SDS011;12312;53.362;-1.518;2022-09-13T13:13:13;2.78;;;0.50;;
24153;SDS011;12312;53.362;-1.518;2022-09-13T13:28:47;6.45;;;0.68;;
24153;SDS011;12312;53.362;-1.518;2022-09-13T13:41:51;2.70;;;0.50;;
24153;SDS011;12312;53.362;-1.518;2022-09-13T13:46:49;2.13;;;0.80;;
24153;SDS011;12312;53.362;-1.518;2022-09-13T13:57:23;6.25;;;1.77;;
24153;SDS011;12312;53.362;-1.518;2022-09-13T13:59:54;2.85;;;0.93;;
24153;SDS011;12312;53.362;-1.518;2022-09-13T14:02:30;5.85;;;1.10;;
24153;SDS011;12312;53.362;-1.518;2022-09-13T14:05:08;5.65;;;1.05;;
24153;SDS011;12312;53.362;-1.518;2022-09-13T14:15:58;4.22;;;1.00;;
24153;SDS011;12312;53.362;-1.518;2022-09-13T14:21:32;4.82;;;1.05;;
24153;SDS011;12312;53.362;-1.518;2022-09-13T14:26:46;9.93;;;1.67;;
24153;SDS011;12312;53.362;-1.518;2022-09-13T14:29:20;4.85;;;1.50;;
24153;SDS011;12312;53.362;-1.518;2022-09-13T14:31:49;5.68;;;1.50;;
24153;SDS011;12312;53.362;-1.518;2022-09-13T14:34:20;3.22;;;1.17;;
24153;SDS011;12312;53.362;-1.518;2022-09-13T14:36:58;6.45;;;1.45;;
24153;SDS011;12312;53.362;-1.518;2022-09-13T14:39:27;7.93;;;1.13;;
24153;SDS011;12312;53.362;-1.518;2022-09-13T14:44:28;3.47;;;1.30;;
24153;SDS011;12312;53.362;-1.518;2022-09-13T14:47:02;5.13;;;1.63;;
24153;SDS011;12312;53.362;-1.518;2022-09-13T14:49:50;5.45;;;1.45;;
24153;SDS011;12312;53.362;-1.518;2022-09-13T14:52:26;6.10;;;1.65;;
24153;SDS011;12312;53.362;-1.518;2022-09-13T14:55:21;4.38;;;1.70;;
24153;SDS011;12312;53.362;-1.518;2022-09-13T14:57:52;5.65;;;1.92;;
24153;SDS011;12312;53.362;-1.518;2022-09-13T15:00:22;5.53;;;1.60;;
24153;SDS011;12312;53.362;-1.518;2022-09-13T15:02:51;9.27;;;2.28;;
24153;SDS011;12312;53.362;-1.518;2022-09-13T15:05:20;5.85;;;1.77;;
24153;SDS011;12312;53.362;-1.518;2022-09-13T15:07:49;4.85;;;2.15;;
24153;SDS011;12312;53.362;-1.518;2022-09-13T15:10:26;5.10;;;2.00;;
24153;SDS011;12312;53.362;-1.518;2022-09-13T15:25:57;8.93;;;2.83;;
24153;SDS011;12312;53.362;-1.518;2022-09-13T15:28:52;8.48;;;2.72;;
24153;SDS011;12312;53.362;-1.518;2022-09-13T15:31:21;5.82;;;2.38;;
24153;SDS011;12312;53.362;-1.518;2022-09-13T15:39:25;6.47;;;2.53;;
24153;SDS011;12312;53.362;-1.518;2022-09-13T15:41:53;9.80;;;2.75;;
24153;SDS011;12312;53.362;-1.518;2022-09-13T15:44:20;9.32;;;2.60;;
24153;SDS011;12312;53.362;-1.518;2022-09-13T15:46:51;12.07;;;2.67;;
24153;SDS011;12312;53.362;-1.518;2022-09-13T15:49:19;6.18;;;2.20;;
24153;SDS011;12312;53.362;-1.518;2022-09-13T15:51:53;6.80;;;2.17;;
24153;SDS011;12312;53.362;-1.518;2022-09-13T15:54:20;9.40;;;2.78;;
24153;SDS011;12312;53.362;-1.518;2022-09-13T15:56:47;9.48;;;2.90;;
24153;SDS011;12312;53.362;-1.518;2022-09-13T15:59:17;9.43;;;3.13;;
24153;SDS011;12312;53.362;-1.518;2022-09-13T16:01:44;7.82;;;2.78;;
24153;SDS011;12312;53.362;-1.518;2022-09-13T16:04:12;6.07;;;2.70;;
24153;SDS011;12312;53.362;-1.518;2022-09-13T16:06:37;9.50;;;2.30;;
24153;SDS011;12312;53.362;-1.518;2022-09-13T16:09:09;8.60;;;2.92;;
24153;SDS011;12312;53.362;-1.518;2022-09-13T16:11:41;9.48;;;2.80;;
24153;SDS011;12312;53.362;-1.518;2022-09-13T16:14:09;6.40;;;2.90;;
24153;SDS011;12312;53.362;-1.518;2022-09-13T16:16:35;7.35;;;2.63;;
24153;SDS011;12312;53.362;-1.518;2022-09-13T16:19:02;8.52;;;3.13;;
24153;SDS011;12312;53.362;-1.518;2022-09-13T16:21:27;7.88;;;2.65;;
24153;SDS011;12312;53.362;-1.518;2022-09-13T16:23:53;7.15;;;2.90;;
24153;SDS011;12312;53.362;-1.518;2022-09-13T16:26:20;10.57;;;3.25;;
24153;SDS011;12312;53.362;-1.518;2022-09-13T16:28:46;6.95;;;3.13;;
24153;SDS011;12312;53.362;-1.518;2022-09-13T16:31:12;8.70;;;3.20;;
24153;SDS011;12312;53.362;-1.518;2022-09-13T16:33:39;8.95;;;3.05;;
24153;SDS011;12312;53.362;-1.518;2022-09-13T16:36:05;6.97;;;2.95;;
24153;SDS011;12312;53.362;-1.518;2022-09-13T16:38:31;8.65;;;3.22;;
24153;SDS011;12312;53.362;-1.518;2022-09-13T16:40:56;10.35;;;4.05;;
24153;SDS011;12312;53.362;-1.518;2022-09-13T16:43:22;7.82;;;3.28;;
24153;SDS011;12312;53.362;-1.518;2022-09-13T16:45:47;8.73;;;3.22;;
24153;SDS011;12312;53.362;-1.518;2022-09-13T16:48:15;6.78;;;3.00;;
24153;SDS011;12312;53.362;-1.518;2022-09-13T16:50:41;9.80;;;2.90;;
24153;SDS011;12312;53.362;-1.518;2022-09-13T16:53:07;10.07;;;3.30;;
24153;SDS011;12312;53.362;-1.518;2022-09-13T16:55:33;7.50;;;3.28;;
24153;SDS011;12312;53.362;-1.518;2022-09-13T16:57:59;7.25;;;2.90;;
24153;SDS011;12312;53.362;-1.518;2022-09-13T17:00:24;10.85;;;2.90;;
24153;SDS011;12312;53.362;-1.518;2022-09-13T17:02:54;13.15;;;5.32;;
24153;SDS011;12312;53.362;-1.518;2022-09-13T17:05:21;10.02;;;4.90;;
24153;SDS011;12312;53.362;-1.518;2022-09-13T17:07:49;6.78;;;3.05;;
24153;SDS011;12312;53.362;-1.518;2022-09-13T17:10:15;9.55;;;2.95;;
24153;SDS011;12312;53.362;-1.518;2022-09-13T17:12:41;8.25;;;2.80;;
24153;SDS011;12312;53.362;-1.518;2022-09-13T17:15:07;13.63;;;3.33;;
24153;SDS011;12312;53.362;-1.518;2022-09-13T17:17:34;9.57;;;3.10;;
24153;SDS011;12312;53.362;-1.518;2022-09-13T17:20:03;10.60;;;3.42;;
24153;SDS011;12312;53.362;-1.518;2022-09-13T17:22:32;9.15;;;3.50;;
24153;SDS011;12312;53.362;-1.518;2022-09-13T17:24:58;6.38;;;2.97;;
24153;SDS011;12312;53.362;-1.518;2022-09-13T17:27:25;9.38;;;3.35;;
24153;SDS011;12312;53.362;-1.518;2022-09-13T17:29:51;8.77;;;3.05;;
24153;SDS011;12312;53.362;-1.518;2022-09-13T17:32:17;9.70;;;3.47;;
24153;SDS011;12312;53.362;-1.518;2022-09-13T17:34:44;8.68;;;3.05;;
24153;SDS011;12312;53.362;-1.518;2022-09-13T17:37:10;8.93;;;2.60;;
24153;SDS011;12312;53.362;-1.518;2022-09-13T17:39:35;9.30;;;2.97;;
24153;SDS011;12312;53.362;-1.518;2022-09-13T17:42:01;7.35;;;2.47;;
24153;SDS011;12312;53.362;-1.518;2022-09-13T17:44:27;7.13;;;2.95;;
24153;SDS011;12312;53.362;-1.518;2022-09-13T17:46:54;10.63;;;3.35;;
24153;SDS011;12312;53.362;-1.518;2022-09-13T17:49:19;6.68;;;3.20;;
24153;SDS011;12312;53.362;-1.518;2022-09-13T17:51:45;8.40;;;3.13;;
24153;SDS011;12312;53.362;-1.518;2022-09-13T17:54:11;8.98;;;3.15;;
24153;SDS011;12312;53.362;-1.518;2022-09-13T17:56:38;10.85;;;3.50;;
24153;SDS011;12312;53.362;-1.518;2022-09-13T17:59:09;7.00;;;2.95;;
24153;SDS011;12312;53.362;-1.518;2022-09-13T18:01:36;5.97;;;3.15;;
24153;SDS011;12312;53.362;-1.518;2022-09-13T18:04:04;7.75;;;3.03;;
24153;SDS011;12312;53.362;-1.518;2022-09-13T18:06:32;7.50;;;3.22;;
24153;SDS011;12312;53.362;-1.518;2022-09-13T18:08:58;7.57;;;2.80;;
24153;SDS011;12312;53.362;-1.518;2022-09-13T18:11:23;8.15;;;2.88;;
24153;SDS011;12312;53.362;-1.518;2022-09-13T18:13:49;15.20;;;6.68;;
24153;SDS011;12312;53.362;-1.518;2022-09-13T18:16:17;11.13;;;2.80;;
24153;SDS011;12312;53.362;-1.518;2022-09-13T18:18:49;7.38;;;2.20;;
24153;SDS011;12312;53.362;-1.518;2022-09-13T18:21:17;7.30;;;2.88;;
24153;SDS011;12312;53.362;-1.518;2022-09-13T18:23:46;6.20;;;2.45;;
24153;SDS011;12312;53.362;-1.518;2022-09-13T18:26:16;7.07;;;2.40;;
24153;SDS011;12312;53.362;-1.518;2022-09-13T18:28:43;8.80;;;2.70;;
24153;SDS011;12312;53.362;-1.518;2022-09-13T18:31:11;5.80;;;2.33;;
24153;SDS011;12312;53.362;-1.518;2022-09-13T18:33:39;8.25;;;2.35;;
24153;SDS011;12312;53.362;-1.518;2022-09-13T18:36:06;6.43;;;2.30;;
24153;SDS011;12312;53.362;-1.518;2022-09-13T18:38:38;6.75;;;2.70;;
24153;SDS011;12312;53.362;-1.518;2022-09-13T18:41:08;7.13;;;2.20;;
24153;SDS011;12312;53.362;-1.518;2022-09-13T18:43:35;6.35;;;2.50;;
24153;SDS011;12312;53.362;-1.518;2022-09-13T18:46:02;6.82;;;2.35;;
24153;SDS011;12312;53.362;-1.518;2022-09-13T18:48:30;6.57;;;2.75;;
24153;SDS011;12312;53.362;-1.518;2022-09-13T18:50:57;11.73;;;2.80;;
24153;SDS011;12312;53.362;-1.518;2022-09-13T18:53:24;8.02;;;2.65;;
24153;SDS011;12312;53.362;-1.518;2022-09-13T18:55:49;8.65;;;3.00;;
24153;SDS011;12312;53.362;-1.518;2022-09-13T18:58:15;8.07;;;3.25;;
24153;SDS011;12312;53.362;-1.518;2022-09-13T19:00:41;9.80;;;3.38;;
24153;SDS011;12312;53.362;-1.518;2022-09-13T19:03:07;7.18;;;2.95;;
24153;SDS011;12312;53.362;-1.518;2022-09-13T19:05:34;8.13;;;3.05;;
24153;SDS011;12312;53.362;-1.518;2022-09-13T19:08:09;8.90;;;3.08;;